createdAt,value
2022-11-26T00:00:49.080Z,100.00
2022-11-26T00:03:16.965Z,100.00
2022-11-26T00:05:45.889Z,100.00
2022-11-26T00:08:17.787Z,100.00
2022-11-26T00:10:53.777Z,100.00
2022-11-26T00:13:22.918Z,100.00
2022-11-26T00:15:50.987Z,100.00
2022-11-26T00:18:18.554Z,100.00
2022-11-26T00:20:47.232Z,100.00
2022-11-26T00:23:21.146Z,100.00
2022-11-26T00:25:52.011Z,100.00
2022-11-26T00:28:28.718Z,100.00
2022-11-26T00:30:57.762Z,100.00
2022-11-26T00:33:27.015Z,100.00
2022-11-26T00:35:57.085Z,100.00
2022-11-26T00:38:24.812Z,100.00
2022-11-26T00:40:53.793Z,100.00
2022-11-26T00:43:21.196Z,100.00
2022-11-26T00:45:50.326Z,100.00
2022-11-26T00:48:19.344Z,100.00
2022-11-26T00:50:49.091Z,100.00
2022-11-26T00:53:19.185Z,100.00
2022-11-26T00:55:48.686Z,100.00
2022-11-26T00:58:23.864Z,100.00
2022-11-26T01:00:51.883Z,100.00
2022-11-26T01:03:19.688Z,100.00
2022-11-26T01:05:50.177Z,100.00
2022-11-26T01:08:28.778Z,100.00
2022-11-26T01:10:56.298Z,100.00
2022-11-26T01:13:25.073Z,100.00
2022-11-26T01:15:52.633Z,100.00
2022-11-26T01:18:21.180Z,100.00
2022-11-26T01:20:49.051Z,100.00
2022-11-26T01:23:18.758Z,100.00
2022-11-26T01:25:47.359Z,100.00
2022-11-26T01:28:18.012Z,100.00
2022-11-26T01:30:47.461Z,100.00
2022-11-26T01:33:14.935Z,100.00
2022-11-26T01:35:42.336Z,100.00
2022-11-26T01:38:12.106Z,100.00
2022-11-26T01:41:04.284Z,100.00
2022-11-26T01:43:34.503Z,100.00
2022-11-26T01:46:03.346Z,100.00
2022-11-26T01:48:33.444Z,100.00
2022-11-26T01:51:03.507Z,100.00
2022-11-26T01:53:34.899Z,100.00
2022-11-26T01:56:05.253Z,100.00
2022-11-26T01:58:39.620Z,100.00
2022-11-26T02:01:09.079Z,100.00
2022-11-26T02:03:45.194Z,100.00
2022-11-26T02:06:16.639Z,100.00
2022-11-26T02:08:44.406Z,100.00
2022-11-26T02:11:19.564Z,100.00
2022-11-26T02:13:48.731Z,100.00
2022-11-26T02:16:25.455Z,100.00
2022-11-26T02:19:03.255Z,100.00
2022-11-26T02:21:32.981Z,100.00
2022-11-26T02:24:32.643Z,100.00
2022-11-26T02:27:16.305Z,100.00
2022-11-26T02:30:04.700Z,100.00
2022-11-26T02:32:35.539Z,100.00
2022-11-26T02:35:06.283Z,100.00
2022-11-26T02:37:37.084Z,100.00
2022-11-26T02:40:05.327Z,100.00
2022-11-26T02:42:35.169Z,100.00
2022-11-26T02:45:07.751Z,100.00
2022-11-26T02:47:38.783Z,100.00
2022-11-26T02:50:09.786Z,100.00
2022-11-26T02:52:40.349Z,100.00
2022-11-26T02:55:09.473Z,100.00
2022-11-26T02:57:42.547Z,100.00
2022-11-26T03:00:12.675Z,100.00
2022-11-26T03:02:44.630Z,100.00
2022-11-26T03:05:13.620Z,100.00
2022-11-26T03:07:41.455Z,100.00
2022-11-26T03:10:09.486Z,100.00
2022-11-26T03:12:36.908Z,100.00
2022-11-26T03:15:04.863Z,100.00
2022-11-26T03:17:35.695Z,100.00
2022-11-26T03:20:04.687Z,100.00
2022-11-26T03:22:32.190Z,100.00
2022-11-26T03:24:59.610Z,100.00
2022-11-26T03:27:27.127Z,100.00
2022-11-26T03:29:54.630Z,100.00
2022-11-26T03:32:22.073Z,100.00
2022-11-26T03:34:51.087Z,100.00
2022-11-26T03:37:18.588Z,100.00
2022-11-26T03:39:45.976Z,100.00
2022-11-26T03:42:13.457Z,100.00
2022-11-26T03:44:41.066Z,100.00
2022-11-26T03:47:08.515Z,100.00
2022-11-26T03:49:35.939Z,100.00
2022-11-26T03:52:04.896Z,100.00
2022-11-26T03:54:32.341Z,100.00
2022-11-26T03:56:59.779Z,100.00
2022-11-26T03:59:27.280Z,100.00
2022-11-26T04:01:55.453Z,100.00
2022-11-26T04:04:22.959Z,100.00
2022-11-26T04:06:50.387Z,100.00
2022-11-26T04:09:19.215Z,100.00
2022-11-26T04:11:47.827Z,100.00
2022-11-26T04:14:15.349Z,100.00
2022-11-26T04:16:42.833Z,100.00
2022-11-26T04:19:10.298Z,100.00
2022-11-26T04:21:37.771Z,100.00
2022-11-26T04:24:05.670Z,100.00
2022-11-26T04:26:34.497Z,100.00
2022-11-26T04:29:01.906Z,100.00
2022-11-26T04:31:29.360Z,100.00
2022-11-26T04:33:56.884Z,100.00
2022-11-26T04:36:24.503Z,100.00
2022-11-26T04:38:51.951Z,100.00
2022-11-26T04:41:19.489Z,100.00
2022-11-26T04:43:48.291Z,100.00
2022-11-26T04:46:15.778Z,100.00
2022-11-26T04:48:43.312Z,100.00
2022-11-26T04:51:10.711Z,100.00
2022-11-26T04:53:38.126Z,100.00
2022-11-26T04:56:05.755Z,100.00
2022-11-26T04:58:33.159Z,100.00
2022-11-26T05:01:02.003Z,100.00
2022-11-26T05:03:29.804Z,100.00
2022-11-26T05:05:57.252Z,100.00
2022-11-26T05:08:24.722Z,100.00
2022-11-26T05:10:54.082Z,100.00
2022-11-26T05:13:21.643Z,100.00
2022-11-26T05:15:49.117Z,100.00
2022-11-26T05:18:18.130Z,100.00
2022-11-26T05:20:45.573Z,100.00
2022-11-26T05:23:13.147Z,100.00
2022-11-26T05:25:40.604Z,100.00
2022-11-26T05:28:08.036Z,100.00
2022-11-26T05:30:35.631Z,100.00
2022-11-26T05:33:03.037Z,100.00
2022-11-26T05:35:31.823Z,100.00
2022-11-26T05:37:59.273Z,100.00
2022-11-26T05:40:26.976Z,100.00
2022-11-26T05:42:54.506Z,100.00
2022-11-26T05:45:22.013Z,100.00
2022-11-26T05:47:49.408Z,100.00
2022-11-26T05:50:17.755Z,100.00
2022-11-26T05:52:46.471Z,100.00
2022-11-26T05:55:16.349Z,100.00
2022-11-26T05:57:43.816Z,100.00
2022-11-26T06:00:12.796Z,100.00
2022-11-26T06:02:41.278Z,100.00
2022-11-26T06:05:09.531Z,100.00
2022-11-26T06:07:40.581Z,100.00
2022-11-26T06:10:13.034Z,100.00
2022-11-26T06:12:40.556Z,100.00
2022-11-26T06:15:08.745Z,100.00
2022-11-26T06:17:38.276Z,100.00
2022-11-26T06:20:07.022Z,100.00
2022-11-26T06:22:37.894Z,100.00
2022-11-26T06:25:06.066Z,100.00
2022-11-26T06:27:35.533Z,100.00
2022-11-26T06:30:04.561Z,100.00
2022-11-26T06:32:32.590Z,100.00
2022-11-26T06:35:00.042Z,100.00
2022-11-26T06:37:27.826Z,100.00
2022-11-26T06:39:55.347Z,100.00
2022-11-26T06:42:22.771Z,100.00
2022-11-26T06:44:53.221Z,100.00
2022-11-26T06:47:23.302Z,100.00
2022-11-26T06:49:50.699Z,100.00
2022-11-26T06:52:18.208Z,100.00
2022-11-26T06:54:45.624Z,100.00
2022-11-26T06:57:15.011Z,100.00
2022-11-26T06:59:42.460Z,100.00
2022-11-26T07:02:12.181Z,100.00
2022-11-26T07:04:39.761Z,100.00
2022-11-26T07:07:07.396Z,100.00
2022-11-26T07:09:34.812Z,100.00
2022-11-26T07:12:02.216Z,100.00
2022-11-26T07:14:29.637Z,100.00
2022-11-26T07:16:57.103Z,100.00
2022-11-26T07:19:26.074Z,100.00
2022-11-26T07:21:54.083Z,100.00
2022-11-26T07:24:21.479Z,100.00
2022-11-26T07:26:49.911Z,100.00
2022-11-26T07:29:17.462Z,100.00
2022-11-26T07:31:44.967Z,100.00
2022-11-26T07:34:12.429Z,100.00
2022-11-26T07:36:43.336Z,100.00
2022-11-26T07:39:11.913Z,100.00
2022-11-26T07:41:39.558Z,100.00
2022-11-26T07:44:06.999Z,100.00
2022-11-26T07:46:37.434Z,100.00
2022-11-26T07:49:04.960Z,100.00
2022-11-26T07:51:33.563Z,100.00
2022-11-26T07:54:07.510Z,100.00
2022-11-26T07:56:35.375Z,100.00
2022-11-26T07:59:02.857Z,100.00
2022-11-26T08:01:31.996Z,100.00
2022-11-26T08:04:00.631Z,100.00
2022-11-26T08:06:30.045Z,100.00
2022-11-26T08:08:59.945Z,100.00
2022-11-26T08:11:30.372Z,100.00
2022-11-26T08:13:59.624Z,100.00
2022-11-26T08:16:29.017Z,100.00
2022-11-26T08:18:57.326Z,100.00
2022-11-26T08:21:24.907Z,100.00
2022-11-26T08:23:52.852Z,100.00
2022-11-26T08:26:25.254Z,100.00
2022-11-26T08:29:00.493Z,100.00
2022-11-26T08:31:28.621Z,100.00
2022-11-26T08:33:57.815Z,100.00
2022-11-26T08:36:25.327Z,100.00
2022-11-26T08:38:52.746Z,100.00
2022-11-26T08:41:20.394Z,100.00
2022-11-26T08:46:37.322Z,100.00
2022-11-26T08:49:05.072Z,100.00
2022-11-26T08:51:32.553Z,99.82
2022-11-26T08:54:00.051Z,98.82
2022-11-26T08:56:27.482Z,98.10
2022-11-26T08:58:54.907Z,98.28
2022-11-26T09:01:24.409Z,98.71
2022-11-26T09:03:54.664Z,99.00
2022-11-26T09:06:23.389Z,99.04
2022-11-26T09:09:08.723Z,98.98
2022-11-26T09:11:38.583Z,99.18
2022-11-26T09:14:06.256Z,99.79
2022-11-26T09:16:33.924Z,100.00
2022-11-26T09:19:04.194Z,100.00
2022-11-26T09:21:34.500Z,100.00
2022-11-26T09:24:02.047Z,100.00
2022-11-26T09:26:31.171Z,100.00
2022-11-26T09:28:58.799Z,100.00
2022-11-26T09:31:26.673Z,98.73
2022-11-26T09:33:56.046Z,97.24
2022-11-26T09:36:24.841Z,96.98
2022-11-26T09:38:54.760Z,96.69
2022-11-26T09:41:31.775Z,97.21
2022-11-26T09:44:16.362Z,96.44
2022-11-26T09:47:10.878Z,95.86
2022-11-26T09:49:40.571Z,94.62
2022-11-26T09:52:10.376Z,94.09
2022-11-26T09:54:39.141Z,95.55
2022-11-26T09:58:26.671Z,94.90
2022-11-26T10:00:56.497Z,94.82
2022-11-26T10:03:25.883Z,93.99
2022-11-26T10:05:58.931Z,92.45
2022-11-26T10:08:38.626Z,92.20
2022-11-26T10:11:09.675Z,91.73
2022-11-26T10:13:44.419Z,91.69
2022-11-26T10:16:16.143Z,92.09
2022-11-26T10:18:48.819Z,93.47
2022-11-26T10:21:32.413Z,90.48
2022-11-26T10:24:11.259Z,89.50
2022-11-26T10:26:40.608Z,88.54
2022-11-26T10:29:19.391Z,90.69
2022-11-26T10:31:48.231Z,91.47
2022-11-26T10:34:19.784Z,91.31
2022-11-26T10:36:48.362Z,91.05
2022-11-26T10:39:17.524Z,90.42
2022-11-26T10:41:45.606Z,89.50
2022-11-26T10:44:34.150Z,90.88
2022-11-26T10:47:21.333Z,89.58
2022-11-26T10:49:49.272Z,87.88
2022-11-26T10:52:18.592Z,87.42
2022-11-26T10:54:47.128Z,87.75
2022-11-26T10:57:16.871Z,89.93
2022-11-26T10:59:51.159Z,89.71
2022-11-26T11:02:31.010Z,89.88
2022-11-26T11:04:59.807Z,89.43
2022-11-26T11:07:41.605Z,90.22
2022-11-26T11:10:15.859Z,90.05
2022-11-26T11:12:44.279Z,90.83
2022-11-26T11:15:22.613Z,89.72
2022-11-26T11:17:56.795Z,89.36
2022-11-26T11:20:29.740Z,88.89
2022-11-26T11:23:03.501Z,87.89
2022-11-26T11:25:32.484Z,87.31
2022-11-26T11:28:12.049Z,86.46
2022-11-26T11:30:42.378Z,86.71
2022-11-26T11:33:12.441Z,86.36
2022-11-26T11:35:39.967Z,86.83
2022-11-26T11:38:22.563Z,88.12
2022-11-26T11:40:51.832Z,87.48
2022-11-26T11:43:22.484Z,87.75
2022-11-26T11:46:09.937Z,88.26
2022-11-26T11:48:47.081Z,86.97
2022-11-26T11:51:24.718Z,88.67
2022-11-26T11:54:03.496Z,88.45
2022-11-26T11:56:35.954Z,87.91
2022-11-26T11:59:21.882Z,87.74
2022-11-26T12:02:09.750Z,87.56
2022-11-26T12:04:52.236Z,89.73
2022-11-26T12:07:31.549Z,88.85
2022-11-26T12:10:06.770Z,89.86
2022-11-26T12:12:36.446Z,91.89
2022-11-26T12:15:07.704Z,91.41
2022-11-26T12:17:39.815Z,91.88
2022-11-26T12:20:15.526Z,92.12
2022-11-26T12:22:46.418Z,91.52
2022-11-26T12:25:21.733Z,92.66
2022-11-26T12:27:56.046Z,91.51
2022-11-26T12:30:27.392Z,91.97
2022-11-26T12:32:58.728Z,91.75
2022-11-26T12:35:30.019Z,91.23
2022-11-26T12:37:59.595Z,92.17
2022-11-26T12:40:32.611Z,92.92
2022-11-26T12:43:03.499Z,92.59
2022-11-26T12:45:45.833Z,92.33
2022-11-26T12:48:25.911Z,91.96
2022-11-26T12:50:56.012Z,92.14
2022-11-26T12:53:32.896Z,91.16
2022-11-26T12:56:07.335Z,91.16
2022-11-26T12:58:42.224Z,91.01
2022-11-26T13:01:10.468Z,91.32
2022-11-26T13:03:39.423Z,92.13
2022-11-26T13:06:12.670Z,93.05
2022-11-26T13:08:48.989Z,92.07
2022-11-26T13:11:26.087Z,91.69
2022-11-26T13:13:59.251Z,91.65
2022-11-26T13:16:34.732Z,92.18
2022-11-26T13:19:07.832Z,90.32
2022-11-26T13:21:44.901Z,90.43
2022-11-26T13:24:24.318Z,90.82
2022-11-26T13:27:07.399Z,90.64
2022-11-26T13:29:50.351Z,91.00
2022-11-26T13:32:39.291Z,89.83
2022-11-26T13:35:19.327Z,91.17
2022-11-26T13:38:07.934Z,91.21
2022-11-26T13:40:58.865Z,90.92
2022-11-26T13:43:55.228Z,92.62
2022-11-26T13:46:29.038Z,92.28
2022-11-26T13:49:01.541Z,91.14
2022-11-26T13:51:33.855Z,91.65
2022-11-26T13:54:07.133Z,91.99
2022-11-26T13:56:36.111Z,93.67
2022-11-26T13:59:05.805Z,93.64
2022-11-26T14:01:38.023Z,93.61
2022-11-26T14:04:07.706Z,93.60
2022-11-26T14:06:37.080Z,94.41
2022-11-26T14:09:05.882Z,93.98
2022-11-26T14:11:57.647Z,94.21
2022-11-26T14:14:33.157Z,94.47
2022-11-26T14:17:32.418Z,93.08
2022-11-26T14:20:09.211Z,93.65
2022-11-26T14:22:38.833Z,93.45
2022-11-26T14:25:08.697Z,93.67
2022-11-26T14:27:37.843Z,93.77
2022-11-26T14:30:19.539Z,93.52
2022-11-26T14:32:51.758Z,94.37
2022-11-26T14:35:23.560Z,93.84
2022-11-26T14:37:54.274Z,94.11
2022-11-26T14:40:24.969Z,94.74
2022-11-26T14:43:07.808Z,94.63
2022-11-26T14:45:35.463Z,94.74
2022-11-26T14:48:03.383Z,94.73
2022-11-26T14:50:31.571Z,94.65
2022-11-26T14:53:04.593Z,95.17
2022-11-26T14:55:32.608Z,95.68
2022-11-26T14:58:06.137Z,95.48
2022-11-26T15:00:36.730Z,95.79
2022-11-26T15:03:04.612Z,95.47
2022-11-26T15:05:33.895Z,96.64
2022-11-26T15:08:04.356Z,95.87
2022-11-26T15:10:33.433Z,95.36
2022-11-26T15:13:04.703Z,94.80
2022-11-26T15:15:32.212Z,96.11
2022-11-26T15:18:03.693Z,94.83
2022-11-26T15:20:31.375Z,95.11
2022-11-26T15:23:00.107Z,95.34
2022-11-26T15:25:33.532Z,96.02
2022-11-26T15:28:03.858Z,95.56
2022-11-26T15:30:34.058Z,96.30
2022-11-26T15:33:03.204Z,95.46
2022-11-26T15:35:33.108Z,95.16
2022-11-26T15:38:00.663Z,95.23
2022-11-26T15:40:31.384Z,95.52
2022-11-26T15:43:00.963Z,95.37
2022-11-26T15:45:35.974Z,95.63
2022-11-26T15:48:04.667Z,94.96
2022-11-26T15:50:33.620Z,94.63
2022-11-26T15:53:03.809Z,94.93
2022-11-26T15:55:34.479Z,94.41
2022-11-26T15:58:04.460Z,95.02
2022-11-26T16:00:34.374Z,94.78
2022-11-26T16:03:02.099Z,94.02
2022-11-26T16:05:34.600Z,93.87
2022-11-26T16:08:03.619Z,93.29
2022-11-26T16:10:35.311Z,94.39
2022-11-26T16:13:08.790Z,94.21
2022-11-26T16:15:36.770Z,93.17
2022-11-26T16:18:05.206Z,93.62
2022-11-26T16:20:32.634Z,93.42
2022-11-26T16:23:00.777Z,92.96
2022-11-26T16:25:29.610Z,92.44
2022-11-26T16:28:13.127Z,92.99
2022-11-26T16:30:42.673Z,93.00
2022-11-26T16:33:10.489Z,93.32
2022-11-26T16:35:46.440Z,93.48
2022-11-26T16:38:19.011Z,92.82
2022-11-26T16:40:46.616Z,92.50
2022-11-26T16:43:15.473Z,92.32
2022-11-26T16:45:43.463Z,93.19
2022-11-26T16:48:20.003Z,92.69
2022-11-26T16:50:47.436Z,92.72
2022-11-26T16:53:14.980Z,92.84
2022-11-26T16:55:42.407Z,92.76
2022-11-26T16:58:17.601Z,92.36
2022-11-26T17:00:45.046Z,92.05
2022-11-26T17:03:14.497Z,92.06
2022-11-26T17:05:42.403Z,91.60
2022-11-26T17:08:11.872Z,92.13
2022-11-26T17:10:39.355Z,91.48
2022-11-26T17:13:06.822Z,91.25
2022-11-26T17:15:35.883Z,90.60
2022-11-26T17:18:06.219Z,90.82
2022-11-26T17:20:33.615Z,91.45
2022-11-26T17:23:01.034Z,91.08
2022-11-26T17:25:30.539Z,90.44
2022-11-26T17:27:57.963Z,90.73
2022-11-26T17:30:25.550Z,90.69
2022-11-26T17:32:54.359Z,90.77
2022-11-26T17:35:21.848Z,91.12
2022-11-26T17:37:49.313Z,91.12
2022-11-26T17:40:18.058Z,90.76
2022-11-26T17:42:45.514Z,91.11
2022-11-26T17:45:13.150Z,90.69
2022-11-26T17:47:41.295Z,90.71
2022-11-26T17:50:16.616Z,90.81
2022-11-26T17:52:44.047Z,90.56
2022-11-26T17:55:12.550Z,90.36
2022-11-26T17:57:39.967Z,91.04
2022-11-26T18:00:09.572Z,91.67
2022-11-26T18:02:37.065Z,92.15
2022-11-26T18:05:04.886Z,91.26
2022-11-26T18:07:33.720Z,91.33
2022-11-26T18:10:01.167Z,92.45
2022-11-26T18:12:29.335Z,92.24
2022-11-26T18:14:57.885Z,91.52
2022-11-26T18:17:25.665Z,92.33
2022-11-26T18:19:53.132Z,91.92
2022-11-26T18:22:22.715Z,91.57
2022-11-26T18:24:56.984Z,91.83
2022-11-26T18:27:26.546Z,92.57
2022-11-26T18:29:54.071Z,92.23
2022-11-26T18:32:21.638Z,92.04
2022-11-26T18:34:49.646Z,91.86
2022-11-26T18:37:17.478Z,92.14
2022-11-26T18:39:44.900Z,92.56
2022-11-26T18:45:01.322Z,92.93
2022-11-26T18:47:29.051Z,92.38
2022-11-26T18:49:56.569Z,91.95
2022-11-26T18:52:24.006Z,92.37
2022-11-26T18:54:51.466Z,92.79
2022-11-26T18:57:20.218Z,92.43
2022-11-26T18:59:48.167Z,92.60
2022-11-26T19:02:15.678Z,93.02
2022-11-26T19:04:43.104Z,92.96
2022-11-26T19:07:10.903Z,93.66
2022-11-26T19:09:38.882Z,93.32
2022-11-26T19:12:07.306Z,92.90
2022-11-26T19:14:36.101Z,92.97
2022-11-26T19:17:03.669Z,92.83
2022-11-26T19:19:32.966Z,93.83
2022-11-26T19:22:01.709Z,93.52
2022-11-26T19:24:29.536Z,94.73
2022-11-26T19:26:57.058Z,95.05
2022-11-26T19:29:24.790Z,94.54
2022-11-26T19:31:53.624Z,94.39
2022-11-26T19:34:21.048Z,94.62
2022-11-26T19:36:49.219Z,95.05
2022-11-26T19:39:18.166Z,94.50
2022-11-26T19:41:45.638Z,94.34
2022-11-26T19:44:13.082Z,94.99
2022-11-26T19:46:41.739Z,94.38
2022-11-26T19:49:12.500Z,93.94
2022-11-26T19:51:40.315Z,94.18
2022-11-26T19:54:07.891Z,94.09
2022-11-26T19:56:35.607Z,94.50
2022-11-26T19:59:03.248Z,94.93
2022-11-26T20:01:32.028Z,94.54
2022-11-26T20:04:00.873Z,93.07
2022-11-26T20:06:31.566Z,93.15
2022-11-26T20:08:59.123Z,93.97
2022-11-26T20:11:27.283Z,94.72
2022-11-26T20:13:55.321Z,95.83
2022-11-26T20:16:25.610Z,95.97
2022-11-26T20:18:53.564Z,95.65
2022-11-26T20:21:22.619Z,96.24
2022-11-26T20:23:51.775Z,96.78
2022-11-26T20:26:21.624Z,95.95
2022-11-26T20:28:49.666Z,96.67
2022-11-26T20:31:22.082Z,96.95
2022-11-26T20:33:51.359Z,96.92
2022-11-26T20:36:20.718Z,96.75
2022-11-26T20:38:48.172Z,97.28
2022-11-26T20:41:17.415Z,97.34
2022-11-26T20:43:45.269Z,96.37
2022-11-26T20:46:14.710Z,96.51
2022-11-26T20:48:43.707Z,96.55
2022-11-26T20:51:13.582Z,96.95
2022-11-26T20:53:41.837Z,96.34
2022-11-26T20:56:09.646Z,96.63
2022-11-26T20:58:38.425Z,96.00
2022-11-26T21:01:06.538Z,96.13
2022-11-26T21:03:34.011Z,96.56
2022-11-26T21:06:03.371Z,95.86
2022-11-26T21:08:30.978Z,96.08
2022-11-26T21:10:58.430Z,95.92
2022-11-26T21:13:25.874Z,95.84
2022-11-26T21:15:54.996Z,95.06
2022-11-26T21:18:22.435Z,95.33
2022-11-26T21:20:50.224Z,95.24
2022-11-26T21:23:17.643Z,95.57
2022-11-26T21:25:45.059Z,95.35
2022-11-26T21:28:14.900Z,94.89
2022-11-26T21:30:42.858Z,95.49
2022-11-26T21:33:11.660Z,95.93
2022-11-26T21:35:39.111Z,95.41
2022-11-26T21:38:06.812Z,95.37
2022-11-26T21:40:34.255Z,95.93
2022-11-26T21:43:01.663Z,96.05
2022-11-26T21:45:29.584Z,96.91
2022-11-26T21:47:56.998Z,97.01
2022-11-26T21:50:25.748Z,97.31
2022-11-26T21:52:53.194Z,97.91
2022-11-26T21:55:21.987Z,98.53
2022-11-26T21:57:49.400Z,99.02
2022-11-26T22:00:18.125Z,99.12
2022-11-26T22:02:45.594Z,99.49
2022-11-26T22:05:13.085Z,99.59
2022-11-26T22:07:42.061Z,100.00
2022-11-26T22:10:10.948Z,100.00
2022-11-26T22:12:38.375Z,100.00
2022-11-26T22:15:06.599Z,100.00
2022-11-26T22:17:35.753Z,100.00
2022-11-26T22:20:03.696Z,100.00
2022-11-26T22:22:32.093Z,100.00
2022-11-26T22:25:00.830Z,100.00
2022-11-26T22:27:28.248Z,100.00
2022-11-26T22:29:55.695Z,100.00
2022-11-26T22:32:23.150Z,100.00
2022-11-26T22:34:50.537Z,100.00
2022-11-26T22:37:17.956Z,100.00
2022-11-26T22:39:47.748Z,100.00
2022-11-26T22:42:19.877Z,100.00
2022-11-26T22:44:47.305Z,100.00
2022-11-26T22:47:14.723Z,100.00
2022-11-26T22:49:43.613Z,100.00
2022-11-26T22:52:11.790Z,100.00
2022-11-26T22:54:39.188Z,100.00
2022-11-26T22:57:06.646Z,100.00
2022-11-26T22:59:35.419Z,100.00
2022-11-26T23:02:02.824Z,100.00
2022-11-26T23:04:30.216Z,100.00
2022-11-26T23:06:57.674Z,100.00
2022-11-26T23:09:25.142Z,100.00
2022-11-26T23:11:52.605Z,100.00
2022-11-26T23:14:20.037Z,100.00
2022-11-26T23:16:48.855Z,100.00
2022-11-26T23:19:17.303Z,100.00
2022-11-26T23:21:46.577Z,100.00
2022-11-26T23:24:14.483Z,99.76
2022-11-26T23:26:42.748Z,100.00
2022-11-26T23:29:11.203Z,100.00
2022-11-26T23:31:40.680Z,100.00
2022-11-26T23:34:10.224Z,100.00
2022-11-26T23:36:38.149Z,100.00
2022-11-26T23:39:07.565Z,100.00
2022-11-26T23:41:35.420Z,100.00
2022-11-26T23:44:03.380Z,100.00
2022-11-26T23:46:32.727Z,100.00
2022-11-26T23:49:00.315Z,100.00
2022-11-26T23:51:31.602Z,100.00
2022-11-26T23:53:59.043Z,100.00
2022-11-26T23:56:28.616Z,98.99
2022-11-26T23:58:57.378Z,99.09
